Impacts METAR Board INFO
IDs:

KMCO - Orlando Intl, FL, US

Updated at: 1528 UTC 18 Jan 2018
Potential Impact None Slight Moderate High
Time18/03Z 18/04Z 18/05Z 18/06Z 18/07Z 18/08Z 18/09Z 18/10Z 18/11Z 18/12Z 18/13Z 18/14Z 18/15Z
VIS10 10 10 10 10 10 10 10 10 10 10 10 10
CIG-- -- -- -- -- -- -- -- -- -- -- -- --
CoverSCTFEWCLRCLRCLRCLRCLRCLRCLRFEWFEWFEWFEW
FltCatVFRVFRVFRVFRVFRVFRVFRVFRVFRVFRVFRVFRVFR
WX--------------------------
WDir300320320330320320320320320320320330360
WSpd9 12 13 11 10 11 11 9 7 8 9 11 8
WGst-- 21 -- -- -- -- -- -- -- -- -- -- --
Raw hourly METARs
KMCO 180253Z 30009KT 10SM FEW015 FEW050 SCT250 08/05 A3031 RMK AO2 SLP264 T00780050 53022
KMCO 180353Z 32012G21KT 10SM FEW250 06/M02 A3032 RMK AO2 SLP268 T00611017
KMCO 180453Z 32013KT 10SM CLR 04/M06 A3033 RMK AO2 SLP271 T00391056 402170039
KMCO 180553Z 33011KT 10SM CLR 03/M07 A3033 RMK AO2 SLP270 T00281067 10122 20028 50005 $
KMCO 180653Z 32010KT 10SM CLR 01/M08 A3034 RMK AO2 SLP272 T00111078 $
KMCO 180753Z 32011KT 10SM CLR 00/M08 A3034 RMK AO2 SLP272 T00001083 $
KMCO 180853Z 32011KT 10SM CLR M01/M09 A3034 RMK AO2 SLP274 T10111089 53004 $
KMCO 180953Z 32009KT 10SM CLR M02/M09 A3035 RMK AO2 SLP276 T10221094 $
KMCO 181053Z 32007KT 10SM CLR M02/M09 A3036 RMK AO2 SLP278 T10221094 $
KMCO 181153Z 32008KT 10SM FEW300 M03/M09 A3037 RMK AO2 SLP284 T10281089 10028 21028 53009 $
KMCO 181253Z 32009KT 10SM FEW300 M02/M09 A3039 RMK AO2 SLP290 T10221089
KMCO 181353Z 33011KT 10SM FEW300 00/M07 A3041 RMK AO2 SLP296 T00001072
KMCO 181453Z 36008KT 10SM FEW300 02/M07 A3042 RMK AO2 SLP298 T00221067 51015